Time;durP1;ratioP1;P1;durP2;ratioP2;P2;SDS_P1;SDS_P2;PMS_P1;PMS_P2;Temp;Humidity;BMP_temperature;BMP_pressure;BME280_temperature;BME280_humidity;BME280_pressure;Samples;Min_cycle;Max_cycle;Signal;HPM_P1;HPM_P2
2022/06/06 00:00:10;;;;;;;1.20;1.20;;;;;;;;;;4966795;28;20205;-31
2022/06/06 00:02:37;;;;;;;16.97;1.90;;;;;;;;;;4958060;28;20215;-31
2022/06/06 00:05:06;;;;;;;1.10;1.00;;;;;;;;;;5060988;23;20240;-27
2022/06/06 00:07:34;;;;;;;0.90;0.90;;;;;;;;;;4993904;28;20228;-31
2022/06/06 00:10:01;;;;;;;1.90;1.80;;;;;;;;;;4988748;28;20228;-28
2022/06/06 00:12:28;;;;;;;4.00;1.23;;;;;;;;;;4976081;28;20212;-29
2022/06/06 00:14:55;;;;;;;2.07;1.10;;;;;;;;;;4994455;28;20208;-30
2022/06/06 00:17:22;;;;;;;9.43;1.43;;;;;;;;;;4985390;28;20243;-26
2022/06/06 00:19:49;;;;;;;3.70;0.97;;;;;;;;;;4975723;28;20213;-28
2022/06/06 00:22:18;;;;;;;5.37;0.90;;;;;;;;;;4989445;28;20239;-28
2022/06/06 00:24:45;;;;;;;2.27;0.80;;;;;;;;;;4990481;28;20204;-28
2022/06/06 00:27:12;;;;;;;4.33;1.10;;;;;;;;;;4980720;28;20233;-25
2022/06/06 00:29:39;;;;;;;1.33;1.10;;;;;;;;;;4992221;28;20200;-28
2022/06/06 00:34:54;;;;;;;1.20;1.10;;;;;;;;;;4985186;28;20227;-26
2022/06/06 00:37:25;;;;;;;2.30;0.90;;;;;;;;;;4979977;28;20228;-28
2022/06/06 00:39:52;;;;;;;1.07;1.00;;;;;;;;;;4974755;28;20212;-27
2022/06/06 00:42:21;;;;;;;1.23;0.90;;;;;;;;;;4989082;28;20210;-29
2022/06/06 00:44:49;;;;;;;1.17;1.07;;;;;;;;;;4993962;28;20661;-27
2022/06/06 00:47:19;;;;;;;1.03;0.70;;;;;;;;;;4991554;28;20228;-29
2022/06/06 00:49:49;;;;;;;1.83;0.93;;;;;;;;;;4977176;28;20205;-29
2022/06/06 00:52:20;;;;;;;1.83;0.80;;;;;;;;;;4988404;28;20666;-29
2022/06/06 00:54:49;;;;;;;2.27;1.00;;;;;;;;;;4992285;28;20230;-30
2022/06/06 00:57:18;;;;;;;6.90;1.00;;;;;;;;;;4989074;28;20224;-28
2022/06/06 00:59:46;;;;;;;1.10;0.93;;;;;;;;;;4983843;28;20208;-29
2022/06/06 01:02:14;;;;;;;5.83;1.00;;;;;;;;;;4977851;28;20209;-28
2022/06/06 01:04:42;;;;;;;0.90;0.90;;;;;;;;;;4983354;28;20243;-27
2022/06/06 01:07:10;;;;;;;1.37;0.93;;;;;;;;;;4987581;28;20224;-28
2022/06/06 01:09:38;;;;;;;0.80;0.80;;;;;;;;;;4984062;28;20204;-29
2022/06/06 01:12:09;;;;;;;3.30;1.00;;;;;;;;;;4974036;28;20204;-27
2022/06/06 01:14:38;;;;;;;2.47;0.80;;;;;;;;;;4976055;28;20741;-28
2022/06/06 01:17:07;;;;;;;1.43;0.90;;;;;;;;;;4985784;28;20228;-29
2022/06/06 01:19:47;;;;;;;0.80;0.80;;;;;;;;;;4981275;28;20635;-25
2022/06/06 01:22:32;;;;;;;1.80;0.90;;;;;;;;;;4978702;28;20201;-29
2022/06/06 01:25:06;;;;;;;0.60;0.60;;;;;;;;;;4975025;28;20201;-26
2022/06/06 01:27:43;;;;;;;0.77;0.77;;;;;;;;;;4990549;28;20227;-29
2022/06/06 01:30:13;;;;;;;0.63;0.63;;;;;;;;;;4986430;28;20206;-26
2022/06/06 01:32:42;;;;;;;2.60;0.80;;;;;;;;;;4988219;28;20216;-27
2022/06/06 01:35:10;;;;;;;1.73;1.03;;;;;;;;;;4980464;28;20221;-26
2022/06/06 01:37:39;;;;;;;2.03;0.83;;;;;;;;;;4974324;28;20221;-28
2022/06/06 01:40:08;;;;;;;1.00;0.90;;;;;;;;;;4977618;28;20215;-28
2022/06/06 01:42:36;;;;;;;0.80;0.80;;;;;;;;;;4987354;28;20219;-29
2022/06/06 01:45:07;;;;;;;0.90;0.90;;;;;;;;;;4992758;28;20203;-27
2022/06/06 01:47:39;;;;;;;0.83;0.83;;;;;;;;;;4987602;28;20224;-29
2022/06/06 01:50:07;;;;;;;1.00;1.00;;;;;;;;;;4988364;28;20205;-30
2022/06/06 01:52:49;;;;;;;1.07;1.07;;;;;;;;;;4992746;28;20208;-27
2022/06/06 01:55:17;;;;;;;2.17;1.00;;;;;;;;;;4997121;28;20218;-30
2022/06/06 01:57:45;;;;;;;0.90;0.90;;;;;;;;;;4986560;28;20231;-30
2022/06/06 02:00:13;;;;;;;0.90;0.90;;;;;;;;;;4994480;28;20207;-25
2022/06/06 02:02:43;;;;;;;1.57;0.90;;;;;;;;;;4981944;28;20212;-27
2022/06/06 02:05:11;;;;;;;8.47;1.00;;;;;;;;;;4990077;28;20212;-25
2022/06/06 02:07:38;;;;;;;1.00;1.00;;;;;;;;;;4995222;28;20227;-26
2022/06/06 02:10:08;;;;;;;1.53;1.03;;;;;;;;;;4994558;28;20254;-26
2022/06/06 02:12:36;;;;;;;0.90;0.90;;;;;;;;;;4990599;28;20212;-31
2022/06/06 02:15:03;;;;;;;1.10;1.10;;;;;;;;;;4988827;28;20278;-28
2022/06/06 02:17:31;;;;;;;0.80;0.80;;;;;;;;;;4983100;28;20232;-29
2022/06/06 02:20:01;;;;;;;1.53;0.80;;;;;;;;;;4977452;28;20205;-28
2022/06/06 02:22:29;;;;;;;0.90;0.90;;;;;;;;;;4977370;28;20207;-29
2022/06/06 02:24:56;;;;;;;0.80;0.80;;;;;;;;;;4979211;28;20247;-29
2022/06/06 02:27:23;;;;;;;8.23;1.40;;;;;;;;;;4981011;28;20256;-29
2022/06/06 02:29:50;;;;;;;3.47;1.20;;;;;;;;;;4985391;28;20236;-27
2022/06/06 02:32:18;;;;;;;7.27;0.90;;;;;;;;;;4977731;28;20204;-26
2022/06/06 02:34:45;;;;;;;0.90;0.90;;;;;;;;;;4976307;28;20236;-27
2022/06/06 02:37:13;;;;;;;5.73;1.10;;;;;;;;;;4990419;28;20227;-27
2022/06/06 02:39:41;;;;;;;2.30;0.97;;;;;;;;;;4994550;28;20211;-28
2022/06/06 02:42:08;;;;;;;1.07;1.00;;;;;;;;;;4992408;28;20208;-28
2022/06/06 02:44:35;;;;;;;4.33;0.93;;;;;;;;;;4984895;28;20196;-26
2022/06/06 02:47:03;;;;;;;2.87;0.87;;;;;;;;;;4990438;28;20323;-25
2022/06/06 02:49:33;;;;;;;1.70;0.70;;;;;;;;;;4982295;28;20212;-30
2022/06/06 02:52:00;;;;;;;1.10;1.00;;;;;;;;;;4984633;28;20235;-30
2022/06/06 02:54:29;;;;;;;1.17;0.90;;;;;;;;;;4982273;28;20246;-28
2022/06/06 02:56:56;;;;;;;0.80;0.80;;;;;;;;;;4983419;28;20228;-30
2022/06/06 02:59:25;;;;;;;2.20;0.90;;;;;;;;;;4987427;28;20584;-26
2022/06/06 03:01:52;;;;;;;0.80;0.80;;;;;;;;;;4984576;28;20217;-28
2022/06/06 03:04:19;;;;;;;0.77;0.77;;;;;;;;;;4981408;28;20212;-27
2022/06/06 03:06:54;;;;;;;2.83;0.90;;;;;;;;;;4976317;28;20228;-27
2022/06/06 03:09:28;;;;;;;1.33;0.90;;;;;;;;;;4973707;28;20208;-27
2022/06/06 03:12:03;;;;;;;0.80;0.80;;;;;;;;;;4986421;28;20204;-27
2022/06/06 03:14:40;;;;;;;0.70;0.70;;;;;;;;;;4977342;28;20232;-27
2022/06/06 03:23:00;;;;;;;0.97;0.90;;;;;;;;;;4983829;28;20203;-27
2022/06/06 03:25:32;;;;;;;0.87;0.87;;;;;;;;;;4989467;28;20230;-27
2022/06/06 03:28:05;;;;;;;3.33;0.80;;;;;;;;;;4987844;28;20197;-28
2022/06/06 03:30:39;;;;;;;0.60;0.60;;;;;;;;;;4992150;28;20208;-27
2022/06/06 03:33:13;;;;;;;2.60;0.90;;;;;;;;;;4977548;28;20204;-30
2022/06/06 03:35:42;;;;;;;7.40;1.20;;;;;;;;;;4977353;28;20212;-30
2022/06/06 03:38:14;;;;;;;3.70;0.70;;;;;;;;;;4980475;28;20203;-25
2022/06/06 03:40:47;;;;;;;3.40;0.70;;;;;;;;;;4977085;28;20239;-27
2022/06/06 03:43:19;;;;;;;1.70;0.90;;;;;;;;;;4974486;28;20196;-29
2022/06/06 03:45:51;;;;;;;3.47;0.90;;;;;;;;;;4974346;28;20228;-27
2022/06/06 03:48:27;;;;;;;1.80;0.80;;;;;;;;;;4978299;28;20200;-29
2022/06/06 03:50:56;;;;;;;0.60;0.60;;;;;;;;;;4978862;28;20195;-26
2022/06/06 03:53:29;;;;;;;0.70;0.70;;;;;;;;;;4995303;28;20207;-24
2022/06/06 03:56:04;;;;;;;0.73;0.73;;;;;;;;;;4985287;28;20228;-27
2022/06/06 03:58:33;;;;;;;0.70;0.70;;;;;;;;;;4984099;28;20303;-27
2022/06/06 04:01:02;;;;;;;1.83;0.93;;;;;;;;;;4976529;28;20215;-25
2022/06/06 04:03:29;;;;;;;0.90;0.90;;;;;;;;;;4980571;28;20240;-28
2022/06/06 04:05:56;;;;;;;0.80;0.80;;;;;;;;;;4986372;28;20223;-29
2022/06/06 04:08:23;;;;;;;0.97;0.97;;;;;;;;;;4993927;28;20238;-28
2022/06/06 04:10:55;;;;;;;0.70;0.70;;;;;;;;;;4989721;28;20204;-31
2022/06/06 04:13:29;;;;;;;0.93;0.93;;;;;;;;;;4988802;28;20215;-28
2022/06/06 04:15:59;;;;;;;1.40;1.30;;;;;;;;;;4982466;28;20224;-29
2022/06/06 04:18:29;;;;;;;1.37;1.27;;;;;;;;;;4989823;28;20891;-27
2022/06/06 04:21:00;;;;;;;1.63;1.20;;;;;;;;;;4993250;28;20200;-27
2022/06/06 04:23:32;;;;;;;1.00;1.00;;;;;;;;;;4992769;28;20211;-26
2022/06/06 04:26:07;;;;;;;1.90;1.00;;;;;;;;;;4987477;28;20228;-28
2022/06/06 04:28:37;;;;;;;4.30;1.20;;;;;;;;;;4995492;28;20196;-30
2022/06/06 04:31:12;;;;;;;3.43;1.67;;;;;;;;;;4992278;28;20203;-25
2022/06/06 04:33:42;;;;;;;1.17;1.17;;;;;;;;;;4983154;28;20208;-29
2022/06/06 04:36:13;;;;;;;1.10;1.10;;;;;;;;;;4979282;28;20224;-25
2022/06/06 04:38:43;;;;;;;1.00;1.00;;;;;;;;;;4974032;28;20193;-26
2022/06/06 04:41:13;;;;;;;1.07;1.07;;;;;;;;;;4986725;28;20214;-29
2022/06/06 04:43:43;;;;;;;1.57;1.47;;;;;;;;;;4993630;28;20200;-28
2022/06/06 04:46:15;;;;;;;1.40;1.30;;;;;;;;;;4989447;28;20231;-29
2022/06/06 04:48:43;;;;;;;1.83;1.60;;;;;;;;;;4982224;28;20369;-26
2022/06/06 04:51:10;;;;;;;2.13;1.40;;;;;;;;;;4974799;28;20200;-28
2022/06/06 04:53:40;;;;;;;1.50;1.40;;;;;;;;;;4971472;28;20291;-28
2022/06/06 04:56:07;;;;;;;1.90;1.77;;;;;;;;;;4985486;28;20231;-26
2022/06/06 04:58:36;;;;;;;2.57;1.90;;;;;;;;;;4984929;28;20470;-25
2022/06/06 05:01:05;;;;;;;2.33;1.73;;;;;;;;;;4982689;28;20212;-29
2022/06/06 05:03:33;;;;;;;3.63;2.17;;;;;;;;;;4977987;28;20219;-28
2022/06/06 05:06:10;;;;;;;2.17;2.00;;;;;;;;;;4982326;28;20714;-24
2022/06/06 05:08:48;;;;;;;2.20;1.90;;;;;;;;;;4974270;28;20268;-28
2022/06/06 05:11:22;;;;;;;2.30;1.90;;;;;;;;;;4982833;28;20282;-27
2022/06/06 05:13:57;;;;;;;2.87;2.20;;;;;;;;;;4992917;28;20199;-29
2022/06/06 05:16:34;;;;;;;2.27;1.73;;;;;;;;;;4984556;28;20234;-26
2022/06/06 05:19:22;;;;;;;3.43;2.10;;;;;;;;;;4982932;28;20207;-28
2022/06/06 05:22:01;;;;;;;2.90;1.90;;;;;;;;;;4981287;28;20300;-25
2022/06/06 05:24:37;;;;;;;1.90;1.80;;;;;;;;;;4974618;28;20186;-28
2022/06/06 05:27:18;;;;;;;3.50;2.10;;;;;;;;;;4977982;28;20226;-29
2022/06/06 05:29:53;;;;;;;2.20;2.00;;;;;;;;;;4991839;28;20254;-28
2022/06/06 05:32:26;;;;;;;1.80;1.70;;;;;;;;;;4979822;28;20308;-28
2022/06/06 05:34:58;;;;;;;2.30;2.10;;;;;;;;;;4975603;28;20213;-29
2022/06/06 05:37:32;;;;;;;2.67;1.70;;;;;;;;;;4974685;28;20260;-25
2022/06/06 05:40:15;;;;;;;1.97;1.77;;;;;;;;;;4974363;28;20208;-25
2022/06/06 05:42:51;;;;;;;3.50;2.10;;;;;;;;;;4983039;28;20208;-29
2022/06/06 05:45:23;;;;;;;2.43;2.23;;;;;;;;;;4993135;28;20200;-26
2022/06/06 05:47:55;;;;;;;2.10;1.83;;;;;;;;;;4987163;28;20207;-26
2022/06/06 05:50:30;;;;;;;3.90;2.10;;;;;;;;;;4989380;28;20192;-28
2022/06/06 05:53:07;;;;;;;4.03;2.20;;;;;;;;;;4974429;28;20205;-27
2022/06/06 05:55:41;;;;;;;2.77;2.23;;;;;;;;;;4976817;28;20231;-26
2022/06/06 05:58:19;;;;;;;2.40;2.20;;;;;;;;;;4981761;28;20284;-29
2022/06/06 06:00:51;;;;;;;5.30;2.07;;;;;;;;;;4990768;28;20283;-28
2022/06/06 06:03:33;;;;;;;2.20;2.00;;;;;;;;;;4985755;28;20202;-29
2022/06/06 06:06:05;;;;;;;2.63;2.30;;;;;;;;;;5220538;23;20273;-29
2022/06/06 06:08:47;;;;;;;2.97;2.30;;;;;;;;;;4963128;28;20211;-32
2022/06/06 06:11:22;;;;;;;3.27;1.80;;;;;;;;;;4968668;28;20207;-32
2022/06/06 06:13:56;;;;;;;1.73;1.63;;;;;;;;;;4971422;28;20664;-31
2022/06/06 06:16:24;;;;;;;2.00;1.70;;;;;;;;;;4967550;28;20242;-33
2022/06/06 06:18:55;;;;;;;3.83;2.17;;;;;;;;;;4954428;28;20223;-33
2022/06/06 06:21:23;;;;;;;4.37;2.40;;;;;;;;;;4961004;28;20192;-29
2022/06/06 06:23:53;;;;;;;2.90;1.80;;;;;;;;;;4972324;28;20211;-29
2022/06/06 06:26:22;;;;;;;5.77;2.50;;;;;;;;;;4965191;28;20257;-34
2022/06/06 06:28:50;;;;;;;2.77;2.53;;;;;;;;;;4962828;28;20206;-33
2022/06/06 06:31:26;;;;;;;2.20;2.00;;;;;;;;;;4962743;28;20270;-30
2022/06/06 06:34:01;;;;;;;3.63;2.40;;;;;;;;;;4964018;28;20211;-31
2022/06/06 06:36:35;;;;;;;3.13;2.20;;;;;;;;;;4968895;28;20237;-32
2022/06/06 06:39:20;;;;;;;2.47;2.27;;;;;;;;;;4973626;28;20212;-29
2022/06/06 06:41:53;;;;;;;3.37;2.17;;;;;;;;;;4953496;28;20657;-30
2022/06/06 06:44:23;;;;;;;2.67;2.43;;;;;;;;;;4965662;28;20203;-32
2022/06/06 06:46:55;;;;;;;2.70;2.50;;;;;;;;;;4960958;28;20240;-32
2022/06/06 06:49:27;;;;;;;4.30;2.57;;;;;;;;;;4963519;28;20527;-28
2022/06/06 06:52:00;;;;;;;3.93;2.73;;;;;;;;;;4957796;28;20218;-30
2022/06/06 06:54:36;;;;;;;2.40;2.30;;;;;;;;;;4956966;29;20207;-32
2022/06/06 06:57:12;;;;;;;3.03;2.40;;;;;;;;;;4962316;28;20231;-30
2022/06/06 06:59:44;;;;;;;2.40;2.20;;;;;;;;;;4976006;28;20209;-32
2022/06/06 07:10:49;;;;;;;2.73;2.50;;;;;;;;;;4961620;28;20270;-30
2022/06/06 07:13:25;;;;;;;2.73;2.53;;;;;;;;;;4970927;28;20203;-32
2022/06/06 07:15:54;;;;;;;3.40;3.00;;;;;;;;;;4973908;28;20231;-30
2022/06/06 07:18:22;;;;;;;4.37;2.20;;;;;;;;;;4973077;28;20215;-32
2022/06/06 07:20:50;;;;;;;3.53;3.00;;;;;;;;;;4976113;28;20207;-33
2022/06/06 07:23:17;;;;;;;4.20;2.73;;;;;;;;;;4975739;28;20214;-32
2022/06/06 07:25:46;;;;;;;3.77;2.47;;;;;;;;;;4973581;28;20233;-33
2022/06/06 07:28:14;;;;;;;3.20;2.60;;;;;;;;;;4958798;28;20214;-35
2022/06/06 07:30:44;;;;;;;2.60;2.40;;;;;;;;;;4960651;28;20207;-31
2022/06/06 07:33:20;;;;;;;2.90;2.63;;;;;;;;;;4961576;28;20201;-31
2022/06/06 07:35:53;;;;;;;2.43;2.23;;;;;;;;;;4966362;28;20227;-32
2022/06/06 07:38:29;;;;;;;4.03;2.50;;;;;;;;;;4976445;28;20200;-30
2022/06/06 07:41:03;;;;;;;2.50;2.30;;;;;;;;;;4957022;28;20215;-32
2022/06/06 07:43:38;;;;;;;4.50;2.27;;;;;;;;;;4964062;28;20296;-31
2022/06/06 07:46:17;;;;;;;2.90;2.60;;;;;;;;;;4969188;28;20224;-29
2022/06/06 07:48:51;;;;;;;3.55;2.58;;;;;;;;;;4958245;28;20208;-32
2022/06/06 07:51:22;;;;;;;4.00;2.60;;;;;;;;;;4956302;28;20209;-32
2022/06/06 07:53:54;;;;;;;3.57;2.73;;;;;;;;;;4956454;29;20201;-34
2022/06/06 07:56:26;;;;;;;2.95;2.40;;;;;;;;;;4956996;28;20229;-33
2022/06/06 07:58:57;;;;;;;2.72;2.47;;;;;;;;;;4964501;28;20204;-30
2022/06/06 08:01:29;;;;;;;3.78;2.50;;;;;;;;;;4959552;28;20213;-31
2022/06/06 08:04:06;;;;;;;3.17;2.60;;;;;;;;;;4968108;28;20216;-32
2022/06/06 08:06:36;;;;;;;5.10;2.50;;;;;;;;;;4964086;28;20232;-30
2022/06/06 08:09:09;;;;;;;2.45;2.25;;;;;;;;;;4956723;28;20213;-32
2022/06/06 08:11:41;;;;;;;2.50;2.13;;;;;;;;;;4955803;28;20247;-32
2022/06/06 08:14:15;;;;;;;3.05;2.17;;;;;;;;;;4963629;28;20201;-30
2022/06/06 08:16:47;;;;;;;2.80;2.25;;;;;;;;;;4965250;28;20612;-31
2022/06/06 08:19:22;;;;;;;5.13;2.30;;;;;;;;;;4955852;28;20197;-31
2022/06/06 08:21:50;;;;;;;3.03;2.10;;;;;;;;;;4966367;28;20200;-32
2022/06/06 08:24:18;;;;;;;2.60;2.30;;;;;;;;;;4969434;28;20213;-30
2022/06/06 08:26:48;;;;;;;3.35;2.38;;;;;;;;;;4958671;28;20888;-29
2022/06/06 08:29:15;;;;;;;2.13;2.03;;;;;;;;;;4963739;28;20211;-30
2022/06/06 08:31:42;;;;;;;2.53;2.10;;;;;;;;;;4959069;28;20212;-30
2022/06/06 08:34:11;;;;;;;3.97;2.50;;;;;;;;;;4958716;28;20221;-31
2022/06/06 08:36:47;;;;;;;2.53;2.30;;;;;;;;;;4964610;28;20229;-32
2022/06/06 08:39:18;;;;;;;2.80;2.17;;;;;;;;;;4958572;28;20193;-34
2022/06/06 08:41:56;;;;;;;3.15;2.00;;;;;;;;;;4972724;28;20219;-31
2022/06/06 08:44:27;;;;;;;3.43;2.10;;;;;;;;;;4963104;28;20208;-32
2022/06/06 08:47:02;;;;;;;2.83;2.03;;;;;;;;;;4960052;28;20221;-31
2022/06/06 08:52:43;;;;;;;1.90;1.80;;;;;;;;;;4955473;28;20204;-31
2022/06/06 08:55:22;;;;;;;2.40;2.13;;;;;;;;;;4973519;28;20205;-31
2022/06/06 08:57:57;;;;;;;4.17;2.40;;;;;;;;;;4966174;28;20256;-34
2022/06/06 09:00:36;;;;;;;2.80;2.40;;;;;;;;;;4962559;28;20200;-32
2022/06/06 09:03:28;;;;;;;2.00;1.90;;;;;;;;;;4965671;28;20210;-30
2022/06/06 09:06:05;;;;;;;2.63;2.13;;;;;;;;;;4954677;28;20233;-33
2022/06/06 09:08:43;;;;;;;2.63;2.13;;;;;;;;;;4972335;28;20196;-34
2022/06/06 09:11:25;;;;;;;5.28;2.00;;;;;;;;;;4964284;28;20211;-32
2022/06/06 09:14:01;;;;;;;1.87;1.77;;;;;;;;;;4963314;28;20208;-29
2022/06/06 09:16:52;;;;;;;3.20;1.80;;;;;;;;;;4957711;28;20233;-33
2022/06/06 09:19:39;;;;;;;2.95;2.50;;;;;;;;;;4956612;28;20201;-31
2022/06/06 09:22:19;;;;;;;2.58;2.00;;;;;;;;;;4970677;28;20200;-30
2022/06/06 09:24:53;;;;;;;2.40;2.20;;;;;;;;;;4968244;28;20208;-31
2022/06/06 09:27:37;;;;;;;2.77;2.20;;;;;;;;;;4967099;28;20216;-29
2022/06/06 09:30:10;;;;;;;4.00;2.35;;;;;;;;;;4954611;29;20193;-34
2022/06/06 09:32:47;;;;;;;2.78;2.40;;;;;;;;;;4957489;28;20300;-32
2022/06/06 09:35:24;;;;;;;2.45;2.25;;;;;;;;;;4970143;28;20192;-30
2022/06/06 09:38:02;;;;;;;2.60;2.13;;;;;;;;;;4955545;28;20201;-32
2022/06/06 09:40:35;;;;;;;2.40;2.20;;;;;;;;;;4957297;28;20232;-30
2022/06/06 09:43:08;;;;;;;6.00;2.73;;;;;;;;;;4966356;28;20216;-31
2022/06/06 09:45:35;;;;;;;1.80;1.70;;;;;;;;;;4956512;28;20723;-29
2022/06/06 09:48:33;;;;;;;2.20;2.00;;;;;;;;;;4964375;28;20210;-30
2022/06/06 09:51:26;;;;;;;2.10;1.97;;;;;;;;;;4961761;28;20197;-32
2022/06/06 10:00:12;;;;;;;1.60;1.50;;;;;;;;;;4954281;28;20192;-32
2022/06/06 10:02:54;;;;;;;5.80;1.67;;;;;;;;;;4955393;28;20209;-34
2022/06/06 10:05:40;;;;;;;2.73;1.43;;;;;;;;;;4954347;28;20193;-32
2022/06/06 10:08:24;;;;;;;1.83;1.73;;;;;;;;;;4954826;29;20213;-32
2022/06/06 10:11:01;;;;;;;2.70;2.00;;;;;;;;;;4954960;28;20680;-32
2022/06/06 10:13:32;;;;;;;2.80;1.50;;;;;;;;;;4968412;28;20213;-30
2022/06/06 10:16:11;;;;;;;3.35;1.83;;;;;;;;;;4966625;28;20222;-32
2022/06/06 10:18:43;;;;;;;2.55;1.63;;;;;;;;;;4963986;28;20208;-32
2022/06/06 10:21:18;;;;;;;1.47;1.40;;;;;;;;;;4963359;28;20205;-33
2022/06/06 10:24:03;;;;;;;3.50;1.52;;;;;;;;;;4957525;28;20230;-31
2022/06/06 10:26:41;;;;;;;1.65;1.55;;;;;;;;;;4965254;28;20224;-32
2022/06/06 10:29:23;;;;;;;3.93;1.53;;;;;;;;;;4962950;28;20188;-31
2022/06/06 10:32:00;;;;;;;1.48;1.38;;;;;;;;;;4961640;28;20200;-33
2022/06/06 10:34:39;;;;;;;1.00;0.90;;;;;;;;;;4963548;28;20209;-32
2022/06/06 10:40:24;;;;;;;3.33;1.80;;;;;;;;;;4961326;28;20196;-31
2022/06/06 10:43:00;;;;;;;1.97;1.77;;;;;;;;;;4971575;28;20216;-31
2022/06/06 10:45:32;;;;;;;2.63;1.50;;;;;;;;;;4972835;28;20196;-31
2022/06/06 10:48:20;;;;;;;1.70;1.60;;;;;;;;;;4965302;28;20196;-32
2022/06/06 10:54:14;;;;;;;1.67;1.57;;;;;;;;;;4974343;28;20207;-32
2022/06/06 10:56:56;;;;;;;2.97;1.43;;;;;;;;;;4958938;28;20248;-30
2022/06/06 10:59:39;;;;;;;1.50;1.40;;;;;;;;;;4943589;28;20213;-33
2022/06/06 11:02:24;;;;;;;1.50;1.40;;;;;;;;;;4969110;28;20208;-30
2022/06/06 11:05:04;;;;;;;2.10;1.70;;;;;;;;;;4970902;28;20212;-31
2022/06/06 11:07:48;;;;;;;1.43;1.33;;;;;;;;;;4956925;28;20258;-31
2022/06/06 11:10:26;;;;;;;1.53;1.43;;;;;;;;;;4957410;29;20193;-31
2022/06/06 11:13:12;;;;;;;1.93;1.50;;;;;;;;;;4970073;28;20207;-28
2022/06/06 11:15:43;;;;;;;1.87;1.60;;;;;;;;;;4965527;28;20215;-32
2022/06/06 11:18:31;;;;;;;2.17;1.27;;;;;;;;;;4958122;28;20236;-32
2022/06/06 11:21:08;;;;;;;1.83;1.43;;;;;;;;;;4957329;28;20201;-32
2022/06/06 11:23:43;;;;;;;1.20;1.20;;;;;;;;;;4956566;28;20561;-32
2022/06/06 11:26:27;;;;;;;2.50;1.70;;;;;;;;;;4957569;28;20227;-32
2022/06/06 11:29:11;;;;;;;2.10;1.37;;;;;;;;;;4967404;28;20204;-31
2022/06/06 11:31:49;;;;;;;1.50;1.40;;;;;;;;;;4967507;28;20209;-30
2022/06/06 11:34:40;;;;;;;1.73;1.57;;;;;;;;;;4962552;28;20208;-32
2022/06/06 11:37:21;;;;;;;1.63;1.30;;;;;;;;;;4957031;28;20248;-32
2022/06/06 11:39:56;;;;;;;2.00;1.40;;;;;;;;;;4958430;28;20208;-31
2022/06/06 11:42:28;;;;;;;1.60;1.50;;;;;;;;;;4958823;28;20209;-29
2022/06/06 11:45:09;;;;;;;1.67;1.37;;;;;;;;;;4967281;28;20215;-28
2022/06/06 11:48:01;;;;;;;1.50;1.40;;;;;;;;;;4965036;28;20233;-31
2022/06/06 11:50:36;;;;;;;2.53;1.63;;;;;;;;;;4956090;28;20209;-32
2022/06/06 11:53:21;;;;;;;1.63;1.43;;;;;;;;;;4956877;29;20193;-32
2022/06/06 11:55:58;;;;;;;2.47;1.50;;;;;;;;;;4956273;28;20235;-33
2022/06/06 11:58:42;;;;;;;1.53;1.10;;;;;;;;;;4965722;28;20271;-31
2022/06/06 12:01:30;;;;;;;1.40;1.23;;;;;;;;;;4962964;28;20212;-31
2022/06/06 12:04:16;;;;;;;2.35;1.30;;;;;;;;;;4939575;28;20615;-30
2022/06/06 12:14:48;;;;;;;2.25;1.20;;;;;;;;;;4980880;28;20255;-27
2022/06/06 12:17:22;;;;;;;1.25;1.13;;;;;;;;;;4921758;28;20230;-28
2022/06/06 12:20:13;;;;;;;1.40;1.30;;;;;;;;;;4988335;28;20207;-28
2022/06/06 12:22:56;;;;;;;2.38;1.17;;;;;;;;;;4964995;28;20212;-26
2022/06/06 12:25:48;;;;;;;1.70;1.40;;;;;;;;;;4975471;28;20196;-27
2022/06/06 12:28:33;;;;;;;1.60;1.50;;;;;;;;;;4989900;28;20192;-28
2022/06/06 12:31:09;;;;;;;1.73;1.23;;;;;;;;;;4987565;28;20356;-26
2022/06/06 12:33:41;;;;;;;1.48;1.30;;;;;;;;;;4980627;28;20208;-25
2022/06/06 12:36:10;;;;;;;1.20;1.10;;;;;;;;;;4981431;28;20244;-25
2022/06/06 12:38:44;;;;;;;1.52;1.40;;;;;;;;;;4974247;28;20214;-30
2022/06/06 12:41:17;;;;;;;1.50;1.10;;;;;;;;;;4979325;28;20200;-30
2022/06/06 12:43:56;;;;;;;1.52;1.42;;;;;;;;;;4976319;28;20212;-26
2022/06/06 12:46:32;;;;;;;2.80;1.20;;;;;;;;;;4987397;28;20231;-27
2022/06/06 12:49:10;;;;;;;1.07;1.07;;;;;;;;;;4984661;28;20203;-27
2022/06/06 12:51:50;;;;;;;1.13;1.13;;;;;;;;;;4976855;28;20243;-26
2022/06/06 12:55:26;;;;;;;1.40;1.30;;;;;;;;;;4976577;28;20204;-31
2022/06/06 12:57:27;;;;;;;1.50;1.40;;;;;;;;;;4980562;28;20323;-28
2022/06/06 12:59:59;;;;;;;1.47;1.37;;;;;;;;;;4993497;28;20286;-29
2022/06/06 13:02:41;;;;;;;2.70;1.50;;;;;;;;;;4989726;28;20227;-29
2022/06/06 13:05:12;;;;;;;0.98;0.98;;;;;;;;;;4969355;28;20208;-29
2022/06/06 13:07:59;;;;;;;2.23;1.10;;;;;;;;;;4991115;28;20224;-27
2022/06/06 13:10:33;;;;;;;1.93;1.20;;;;;;;;;;4987251;28;20251;-28
2022/06/06 13:13:11;;;;;;;3.13;1.40;;;;;;;;;;4978339;28;20222;-26
2022/06/06 13:15:43;;;;;;;2.65;1.20;;;;;;;;;;4992842;28;20203;-28
2022/06/06 13:18:20;;;;;;;1.60;1.50;;;;;;;;;;4972603;28;20220;-28
2022/06/06 13:20:54;;;;;;;3.33;1.52;;;;;;;;;;4989391;28;20203;-28
2022/06/06 13:23:48;;;;;;;1.30;1.30;;;;;;;;;;4973528;28;20188;-24
2022/06/06 13:26:22;;;;;;;1.20;1.20;;;;;;;;;;4921034;28;20222;-28
2022/06/06 13:28:51;;;;;;;2.53;1.33;;;;;;;;;;4980953;28;20204;-28
2022/06/06 13:31:25;;;;;;;1.33;1.15;;;;;;;;;;4973125;28;20204;-26
2022/06/06 13:34:17;;;;;;;2.13;1.33;;;;;;;;;;4980528;28;20200;-28
2022/06/06 13:36:57;;;;;;;1.67;1.20;;;;;;;;;;4972354;28;20228;-28
2022/06/06 13:39:37;;;;;;;1.88;1.20;;;;;;;;;;4973253;28;20204;-27
2022/06/06 13:42:11;;;;;;;1.90;1.27;;;;;;;;;;4973094;28;20204;-27
2022/06/06 13:44:50;;;;;;;2.45;1.20;;;;;;;;;;4972887;28;20192;-27
2022/06/06 13:47:26;;;;;;;1.00;1.00;;;;;;;;;;4973856;28;20216;-28
2022/06/06 13:50:04;;;;;;;1.80;1.08;;;;;;;;;;4974514;28;20207;-26
2022/06/06 13:52:44;;;;;;;2.08;1.00;;;;;;;;;;4976955;28;20263;-30
2022/06/06 13:55:25;;;;;;;1.15;1.15;;;;;;;;;;4982618;28;20272;-24
2022/06/06 13:57:56;;;;;;;2.28;1.20;;;;;;;;;;4979887;28;20228;-29
2022/06/06 14:00:29;;;;;;;4.55;1.50;;;;;;;;;;4972686;28;20250;-30
2022/06/06 14:03:13;;;;;;;1.00;1.00;;;;;;;;;;4973727;28;20208;-27
2022/06/06 14:05:53;;;;;;;1.25;1.25;;;;;;;;;;4975298;28;20219;-27
2022/06/06 14:08:21;;;;;;;1.45;1.35;;;;;;;;;;4991948;28;20207;-27
2022/06/06 14:11:02;;;;;;;1.30;1.20;;;;;;;;;;4983890;28;20234;-28
2022/06/06 14:13:36;;;;;;;1.15;1.10;;;;;;;;;;4918007;28;1233741;-28
2022/06/06 14:16:16;;;;;;;1.60;1.20;;;;;;;;;;4977310;28;20232;-27
2022/06/06 14:18:43;;;;;;;1.15;1.13;;;;;;;;;;4978839;28;20291;-29
2022/06/06 14:21:22;;;;;;;1.75;1.08;;;;;;;;;;4992598;28;20250;-27
2022/06/06 14:23:49;;;;;;;1.23;1.13;;;;;;;;;;4993314;28;20219;-30
2022/06/06 14:26:21;;;;;;;1.75;1.40;;;;;;;;;;4984675;28;20224;-29
2022/06/06 14:29:02;;;;;;;1.60;1.50;;;;;;;;;;4984319;28;20219;-31
2022/06/06 14:31:36;;;;;;;1.58;1.40;;;;;;;;;;4975974;28;20271;-28
2022/06/06 14:34:17;;;;;;;1.75;1.30;;;;;;;;;;4974872;28;20200;-31
2022/06/06 14:36:46;;;;;;;1.95;1.52;;;;;;;;;;4991463;28;20271;-27
2022/06/06 14:39:21;;;;;;;1.55;1.45;;;;;;;;;;4993184;28;20208;-27
2022/06/06 14:41:49;;;;;;;2.42;1.33;;;;;;;;;;4986876;28;20257;-31
2022/06/06 14:44:29;;;;;;;1.40;1.30;;;;;;;;;;4974932;28;20200;-28
2022/06/06 14:47:08;;;;;;;4.63;1.40;;;;;;;;;;4977772;28;20223;-29
2022/06/06 14:49:36;;;;;;;1.20;1.20;;;;;;;;;;4991904;28;20200;-30
2022/06/06 14:52:09;;;;;;;1.40;1.30;;;;;;;;;;4985738;28;20204;-26
2022/06/06 14:54:38;;;;;;;2.28;1.27;;;;;;;;;;4992930;28;20199;-26
2022/06/06 14:57:07;;;;;;;1.85;1.30;;;;;;;;;;4982065;28;20225;-26
2022/06/06 14:59:38;;;;;;;1.02;1.02;;;;;;;;;;4978352;28;20200;-25
2022/06/06 15:02:16;;;;;;;1.42;1.33;;;;;;;;;;4982314;28;20208;-28
2022/06/06 15:04:43;;;;;;;2.13;1.37;;;;;;;;;;4988011;28;20212;-24
2022/06/06 15:07:11;;;;;;;2.55;1.20;;;;;;;;;;4996186;28;20228;-29
2022/06/06 15:09:40;;;;;;;2.45;1.10;;;;;;;;;;4992139;28;20299;-31
2022/06/06 15:12:23;;;;;;;4.73;1.53;;;;;;;;;;4993692;28;20235;-31
2022/06/06 15:15:00;;;;;;;1.25;1.20;;;;;;;;;;4985544;28;20223;-28
2022/06/06 15:17:30;;;;;;;1.83;1.35;;;;;;;;;;4978022;28;20295;-30
2022/06/06 15:19:59;;;;;;;1.40;1.23;;;;;;;;;;4984370;28;20204;-27
2022/06/06 15:22:29;;;;;;;2.00;1.38;;;;;;;;;;4992078;28;20211;-27
2022/06/06 15:24:56;;;;;;;1.90;1.33;;;;;;;;;;4991885;28;20235;-29
2022/06/06 15:27:32;;;;;;;2.20;1.35;;;;;;;;;;4985191;28;20283;-27
2022/06/06 15:30:03;;;;;;;1.67;1.20;;;;;;;;;;4986484;28;20235;-26
2022/06/06 15:32:34;;;;;;;1.90;1.80;;;;;;;;;;4986556;28;20242;-24
2022/06/06 15:35:07;;;;;;;1.30;1.25;;;;;;;;;;4984539;28;20196;-27
2022/06/06 15:37:39;;;;;;;1.60;1.40;;;;;;;;;;4994766;28;20231;-26
2022/06/06 15:40:14;;;;;;;1.73;1.30;;;;;;;;;;4990799;28;20223;-27
2022/06/06 15:42:43;;;;;;;1.50;1.40;;;;;;;;;;4992791;28;20272;-28
2022/06/06 15:45:16;;;;;;;1.67;1.25;;;;;;;;;;4984487;28;20234;-30
2022/06/06 15:47:55;;;;;;;1.48;1.40;;;;;;;;;;4981183;28;20232;-27
2022/06/06 15:50:26;;;;;;;2.42;1.60;;;;;;;;;;4990605;28;20233;-30
2022/06/06 15:52:59;;;;;;;1.60;1.50;;;;;;;;;;4976253;28;20287;-28
2022/06/06 15:55:29;;;;;;;2.40;1.67;;;;;;;;;;4974638;28;20204;-29
2022/06/06 15:58:09;;;;;;;2.17;1.60;;;;;;;;;;4977893;28;20216;-30
2022/06/06 16:00:39;;;;;;;1.75;1.65;;;;;;;;;;4985634;28;20200;-27
2022/06/06 16:03:22;;;;;;;3.53;1.40;;;;;;;;;;4988923;28;20207;-28